createdAt,value
2017-04-06T00:00:12.493Z,5.54
2017-04-06T00:01:22.053Z,5.54
2017-04-06T00:02:32.198Z,5.54
2017-04-06T00:03:42.081Z,5.61
2017-04-06T00:04:52.322Z,5.54
2017-04-06T00:06:02.204Z,5.58
2017-04-06T00:07:11.811Z,5.5
2017-04-06T00:08:21.472Z,5.46
2017-04-06T00:09:31.973Z,5.46
2017-04-06T00:10:42.107Z,5.5
2017-04-06T00:11:51.382Z,5.51
2017-04-06T00:13:01.261Z,5.56
2017-04-06T00:14:11.144Z,5.59
2017-04-06T00:15:20.737Z,5.53
2017-04-06T00:16:30.934Z,5.49
2017-04-06T00:17:40.538Z,5.59
2017-04-06T00:18:50.177Z,5.5
2017-04-06T00:20:00.086Z,5.5
2017-04-06T00:21:09.687Z,5.46
2017-04-06T00:22:19.835Z,5.43
2017-04-06T00:23:29.664Z,5.56
2017-04-06T00:24:39.412Z,5.46
2017-04-06T00:25:49.304Z,5.44
2017-04-06T00:26:58.990Z,5.41
2017-04-06T00:28:09.161Z,5.44
2017-04-06T00:29:18.764Z,5.41
2017-04-06T00:30:28.814Z,5.43
2017-04-06T00:31:38.695Z,5.47
2017-04-06T00:32:48.576Z,5.38
2017-04-06T00:33:58.763Z,5.41
2017-04-06T00:35:08.641Z,5.29
2017-04-06T00:36:17.931Z,5.28
2017-04-06T00:37:27.211Z,5.31
2017-04-06T00:38:36.817Z,5.33
2017-04-06T00:39:46.947Z,5.31
2017-04-06T00:40:55.891Z,5.35
2017-04-06T00:42:05.862Z,5.33
2017-04-06T00:43:15.931Z,5.29
2017-04-06T00:44:25.832Z,5.32
2017-04-06T00:45:35.710Z,5.32
2017-04-06T00:46:45.647Z,5.29
2017-04-06T00:47:55.584Z,5.17
2017-04-06T00:49:05.470Z,5.17
2017-04-06T00:50:15.031Z,5.28
2017-04-06T00:51:25.262Z,5.31
2017-04-06T00:52:34.818Z,5.29
2017-04-06T00:53:44.719Z,5.28
2017-04-06T00:54:54.713Z,5.16
2017-04-06T00:56:04.654Z,5.24
2017-04-06T00:57:14.794Z,5.22
2017-04-06T00:58:24.369Z,5.21
2017-04-06T00:59:33.975Z,5.22
2017-04-06T01:00:43.866Z,5.24
2017-04-06T01:01:53.761Z,5.13
2017-04-06T01:03:03.684Z,5.16
2017-04-06T01:04:13.645Z,5.14
2017-04-06T01:05:23.526Z,5.16
2017-04-06T01:06:33.092Z,5.14
2017-04-06T01:07:42.370Z,5.11
2017-04-06T01:08:52.506Z,5.16
2017-04-06T01:10:02.111Z,5.11
2017-04-06T01:11:11.694Z,5.11
2017-04-06T01:12:20.942Z,5.13
2017-04-06T01:13:30.544Z,5.11
2017-04-06T01:14:40.808Z,5.11
2017-04-06T01:15:50.720Z,5.1
2017-04-06T01:17:00.611Z,5.07
2017-04-06T01:18:10.205Z,5.11
2017-04-06T01:19:19.874Z,5.08
2017-04-06T01:20:30.056Z,5.07
2017-04-06T01:21:39.702Z,5
2017-04-06T01:22:49.291Z,5.03
2017-04-06T01:23:58.936Z,5.03
2017-04-06T01:25:09.041Z,5.06
2017-04-06T01:26:18.851Z,4.99
2017-04-06T01:27:28.745Z,5.04
2017-04-06T01:28:38.623Z,5.04
2017-04-06T01:29:48.446Z,5.08
2017-04-06T01:30:58.443Z,5.06
2017-04-06T01:32:08.258Z,5.06
2017-04-06T01:33:18.137Z,5
2017-04-06T01:34:28.007Z,5
2017-04-06T01:35:37.997Z,5
2017-04-06T01:36:47.887Z,4.92
2017-04-06T01:37:57.708Z,4.96
2017-04-06T01:39:07.283Z,4.98
2017-04-06T01:40:16.575Z,4.86
2017-04-06T01:41:26.463Z,4.85
2017-04-06T01:42:36.346Z,4.83
2017-04-06T01:43:46.153Z,4.86
2017-04-06T01:44:56.040Z,4.8
2017-04-06T01:46:05.649Z,4.77
2017-04-06T01:47:15.543Z,4.81
2017-04-06T01:48:25.104Z,4.8
2017-04-06T01:49:35.300Z,4.81
2017-04-06T01:50:45.180Z,4.8
2017-04-06T01:51:54.750Z,4.85
2017-04-06T01:53:04.670Z,4.83
2017-04-06T01:54:14.120Z,4.8
2017-04-06T01:55:24.306Z,4.8
2017-04-06T01:56:33.868Z,4.8
2017-04-06T01:57:43.461Z,4.83
2017-04-06T01:58:53.202Z,4.88
2017-04-06T02:00:02.453Z,4.8
2017-04-06T02:01:12.337Z,4.81
2017-04-06T02:02:21.908Z,4.85
2017-04-06T02:03:31.506Z,4.83
2017-04-06T02:04:41.081Z,4.81
2017-04-06T02:05:50.961Z,4.86
2017-04-06T02:07:00.831Z,4.81
2017-04-06T02:08:10.453Z,4.93
2017-04-06T02:09:20.338Z,4.92
2017-04-06T02:10:29.905Z,4.95
2017-04-06T02:11:39.849Z,4.98
2017-04-06T02:12:50.058Z,4.93
2017-04-06T02:13:59.945Z,4.9
2017-04-06T02:15:09.547Z,4.98
2017-04-06T02:16:19.127Z,4.88
2017-04-06T02:17:29.010Z,4.83
2017-04-06T02:18:39.400Z,4.81
2017-04-06T02:19:49.020Z,4.81
2017-04-06T02:20:58.665Z,4.85
2017-04-06T02:22:08.562Z,4.77
2017-04-06T02:23:18.493Z,4.81
2017-04-06T02:24:28.624Z,4.85
2017-04-06T02:25:38.585Z,4.74
2017-04-06T02:26:48.466Z,4.75
2017-04-06T02:27:58.063Z,4.77
2017-04-06T02:29:07.633Z,4.73
2017-04-06T02:30:17.821Z,4.67
2017-04-06T02:31:27.700Z,4.68
2017-04-06T02:32:37.333Z,4.67
2017-04-06T02:33:47.250Z,4.55
2017-04-06T02:34:56.812Z,4.67
2017-04-06T02:36:07.052Z,4.55
2017-04-06T02:37:16.621Z,4.6
2017-04-06T02:38:26.630Z,4.67
2017-04-06T02:39:35.889Z,4.6
2017-04-06T02:40:45.801Z,4.53
2017-04-06T02:41:56.061Z,4.56
2017-04-06T02:43:05.972Z,4.5
2017-04-06T02:44:15.902Z,4.52
2017-04-06T02:45:25.806Z,4.5
2017-04-06T02:46:35.455Z,4.5
2017-04-06T02:47:45.608Z,4.47
2017-04-06T02:48:55.567Z,4.41
2017-04-06T02:50:05.155Z,4.4
2017-04-06T02:51:15.105Z,4.43
2017-04-06T02:52:25.055Z,4.41
2017-04-06T02:53:34.897Z,4.43
2017-04-06T02:54:44.547Z,4.38
2017-04-06T02:55:54.182Z,4.46
2017-04-06T02:57:03.760Z,4.4
2017-04-06T02:58:13.024Z,4.38
2017-04-06T02:59:22.915Z,4.38
2017-04-06T03:00:32.806Z,4.38
2017-04-06T03:01:42.980Z,4.4
2017-04-06T03:02:52.946Z,4.4
2017-04-06T03:04:02.850Z,4.36
2017-04-06T03:05:13.049Z,4.33
2017-04-06T03:06:22.952Z,4.33
2017-04-06T03:07:32.853Z,4.38
2017-04-06T03:08:42.864Z,4.38
2017-04-06T03:09:52.797Z,4.4
2017-04-06T03:11:03.043Z,4.4
2017-04-06T03:12:13.006Z,4.46
2017-04-06T03:13:22.938Z,4.37
2017-04-06T03:14:32.519Z,4.37
2017-04-06T03:15:42.697Z,4.38
2017-04-06T03:16:52.879Z,4.37
2017-04-06T03:18:02.800Z,4.3
2017-04-06T03:19:12.809Z,4.28
2017-04-06T03:20:22.797Z,4.33
2017-04-06T03:21:32.717Z,4.3
2017-04-06T03:22:42.858Z,4.27
2017-04-06T03:23:52.808Z,4.28
2017-04-06T03:25:02.849Z,4.36
2017-04-06T03:26:12.514Z,4.36
2017-04-06T03:27:22.472Z,4.28
2017-04-06T03:28:32.402Z,4.33
2017-04-06T03:29:42.317Z,4.3
2017-04-06T03:30:52.300Z,4.31
2017-04-06T03:32:01.893Z,4.33
2017-04-06T03:33:11.794Z,4.3
2017-04-06T03:34:21.936Z,4.19
2017-04-06T03:35:30.882Z,4.2
2017-04-06T03:36:40.463Z,4.25
2017-04-06T03:37:50.371Z,4.18
2017-04-06T03:39:00.306Z,4.25
2017-04-06T03:40:10.515Z,4.15
2017-04-06T03:41:20.461Z,4.19
2017-04-06T03:42:30.354Z,4.22
2017-04-06T03:43:39.973Z,4.27
2017-04-06T03:44:49.879Z,4.19
2017-04-06T03:46:00.199Z,4.2
2017-04-06T03:47:10.094Z,4.16
2017-04-06T03:48:19.717Z,4.2
2017-04-06T03:49:29.653Z,4.2
2017-04-06T03:50:39.563Z,4.13
2017-04-06T03:51:49.716Z,4.18
2017-04-06T03:52:59.606Z,4.22
2017-04-06T03:54:09.645Z,4.13
2017-04-06T03:55:19.547Z,4.2
2017-04-06T03:56:28.894Z,4.2
2017-04-06T03:57:39.077Z,4.27
2017-04-06T03:58:48.899Z,4.23
2017-04-06T03:59:58.961Z,4.19
2017-04-06T04:01:08.858Z,4.15
2017-04-06T04:02:18.820Z,4.19
2017-04-06T04:03:28.733Z,4.19
2017-04-06T04:04:38.387Z,4.11
2017-04-06T04:05:47.634Z,4.19
2017-04-06T04:06:57.541Z,4.22
2017-04-06T04:08:07.126Z,4.16
2017-04-06T04:09:17.366Z,4.13
2017-04-06T04:10:27.270Z,4.16
2017-04-06T04:11:36.853Z,4.11
2017-04-06T04:12:46.770Z,4.2
2017-04-06T04:13:56.796Z,4.12
2017-04-06T04:15:07.124Z,4.12
2017-04-06T04:16:17.099Z,4.09
2017-04-06T04:17:26.726Z,4.15
2017-04-06T04:18:36.623Z,4.2
2017-04-06T04:19:46.204Z,4.04
2017-04-06T04:20:56.401Z,4.11
2017-04-06T04:22:06.353Z,4.12
2017-04-06T04:23:15.930Z,4.04
2017-04-06T04:24:25.510Z,4.05
2017-04-06T04:25:35.504Z,4.05
2017-04-06T04:26:45.412Z,4.16
2017-04-06T04:27:54.676Z,4.09
2017-04-06T04:29:04.607Z,4.03
2017-04-06T04:30:14.187Z,4.12
2017-04-06T04:31:23.914Z,4.05
2017-04-06T04:32:34.055Z,3.98
2017-04-06T04:33:43.954Z,4.11
2017-04-06T04:34:53.935Z,4.08
2017-04-06T04:36:03.242Z,4.08
2017-04-06T04:37:13.003Z,4.09
2017-04-06T04:38:54.664Z,4.03
2017-04-06T04:40:04.861Z,4.04
2017-04-06T04:41:14.816Z,3.98
2017-04-06T04:42:24.406Z,3.98
2017-04-06T04:43:34.594Z,4.12
2017-04-06T04:44:44.497Z,4.01
2017-04-06T04:45:54.085Z,4.05
2017-04-06T04:47:04.033Z,3.98
2017-04-06T04:48:13.674Z,3.98
2017-04-06T04:49:23.838Z,4.04
2017-04-06T04:50:33.903Z,4.01
2017-04-06T04:51:43.865Z,4
2017-04-06T04:52:53.762Z,4.13
2017-04-06T04:54:03.040Z,4.09
2017-04-06T04:55:13.199Z,4.11
2017-04-06T04:56:23.160Z,4.2
2017-04-06T04:57:33.074Z,4.01
2017-04-06T04:58:43.008Z,4.16
2017-04-06T04:59:52.626Z,4.12
2017-04-06T05:01:02.520Z,4.03
2017-04-06T05:02:12.197Z,4.15
2017-04-06T05:03:21.778Z,4.18
2017-04-06T05:04:31.677Z,4.15
2017-04-06T05:05:41.013Z,4.13
2017-04-06T05:06:51.246Z,4.19
2017-04-06T05:08:00.920Z,4.2
2017-04-06T05:09:10.513Z,4.15
2017-04-06T05:10:20.531Z,4.09
2017-04-06T05:11:30.484Z,4.2
2017-04-06T05:12:40.374Z,4.2
2017-04-06T05:13:49.943Z,4.22
2017-04-06T05:14:59.564Z,4.23
2017-04-06T05:16:09.569Z,4.25
2017-04-06T05:17:19.514Z,4.25
2017-04-06T05:18:29.663Z,4.22
2017-04-06T05:19:38.964Z,4.2
2017-04-06T05:20:48.856Z,4.27
2017-04-06T05:21:58.170Z,4.22
2017-04-06T05:23:08.136Z,4.27
2017-04-06T05:24:18.305Z,4.18
2017-04-06T05:25:27.880Z,4.27
2017-04-06T05:26:37.805Z,4.22
2017-04-06T05:27:47.761Z,4.19
2017-04-06T05:28:57.670Z,4.28
2017-04-06T05:30:07.832Z,4.3
2017-04-06T05:31:17.229Z,4.25
2017-04-06T05:32:26.875Z,4.41
2017-04-06T05:33:36.836Z,4.46
2017-04-06T05:34:46.442Z,4.41
2017-04-06T05:35:56.403Z,4.46
2017-04-06T05:37:06.314Z,4.47
2017-04-06T05:38:16.325Z,4.5
2017-04-06T05:39:25.905Z,4.43
2017-04-06T05:40:35.593Z,4.52
2017-04-06T05:41:45.821Z,4.5
2017-04-06T05:42:55.751Z,4.47
2017-04-06T05:44:05.661Z,4.53
2017-04-06T05:45:15.574Z,4.56
2017-04-06T05:46:25.480Z,4.49
2017-04-06T05:47:35.310Z,4.49
2017-04-06T05:48:44.573Z,4.55
2017-04-06T05:49:53.909Z,4.62
2017-04-06T05:51:03.803Z,4.59
2017-04-06T05:52:13.725Z,4.7
2017-04-06T05:53:23.907Z,4.57
2017-04-06T05:54:33.523Z,4.65
2017-04-06T05:55:43.428Z,4.71
2017-04-06T05:56:53.379Z,4.77
2017-04-06T05:58:03.482Z,4.74
2017-04-06T05:59:13.311Z,4.8
2017-04-06T06:00:23.252Z,4.9
2017-04-06T06:01:33.186Z,4.86
2017-04-06T06:02:43.114Z,4.98
2017-04-06T06:03:53.041Z,4.92
2017-04-06T06:05:03.311Z,4.93
2017-04-06T06:06:12.893Z,4.99
2017-04-06T06:07:22.793Z,5.03
2017-04-06T06:08:32.413Z,5.04
2017-04-06T06:09:42.313Z,5.08
2017-04-06T06:10:51.895Z,5
2017-04-06T06:12:01.871Z,5.13
2017-04-06T06:13:11.803Z,5.08
2017-04-06T06:14:21.769Z,5.11
2017-04-06T06:15:31.717Z,5.1
2017-04-06T06:16:41.861Z,5.06
2017-04-06T06:17:51.458Z,5.11
2017-04-06T06:19:01.551Z,5.11
2017-04-06T06:20:11.496Z,5.18
2017-04-06T06:21:21.420Z,5.22
2017-04-06T06:22:31.280Z,5.18
2017-04-06T06:23:41.213Z,5.24
2017-04-06T06:24:51.138Z,5.18
2017-04-06T06:26:01.029Z,5.24
2017-04-06T06:27:10.958Z,5.28
2017-04-06T06:28:20.797Z,5.38
2017-04-06T06:29:30.697Z,5.41
2017-04-06T06:30:40.316Z,5.47
2017-04-06T06:31:49.961Z,5.53
2017-04-06T06:32:59.874Z,5.56
2017-04-06T06:34:10.017Z,5.5
2017-04-06T06:35:19.633Z,5.68
2017-04-06T06:36:29.575Z,5.67
2017-04-06T06:37:39.184Z,5.69
2017-04-06T06:38:49.136Z,5.8
2017-04-06T06:39:59.274Z,5.86
2017-04-06T06:41:09.195Z,5.74
2017-04-06T06:42:18.786Z,5.99
2017-04-06T06:43:28.493Z,5.96
2017-04-06T06:44:38.450Z,5.93
2017-04-06T06:45:48.733Z,6.03
2017-04-06T06:46:58.700Z,6.08
2017-04-06T06:48:07.959Z,6.05
2017-04-06T06:49:17.628Z,6.14
2017-04-06T06:50:27.528Z,6.19
2017-04-06T06:51:37.771Z,6.21
2017-04-06T06:52:47.709Z,6.3
2017-04-06T06:53:56.970Z,6.28
2017-04-06T06:55:06.548Z,6.14
2017-04-06T06:56:16.136Z,6.16
2017-04-06T06:57:26.278Z,6.23
2017-04-06T06:58:35.883Z,6.17
2017-04-06T06:59:45.470Z,6.17
2017-04-06T07:00:55.052Z,6.14
2017-04-06T07:02:04.659Z,6.14
2017-04-06T07:03:14.241Z,6.16
2017-04-06T07:04:23.532Z,6.09
2017-04-06T07:05:32.789Z,6.14
2017-04-06T07:06:42.394Z,6.05
2017-04-06T07:07:52.331Z,6.06
2017-04-06T07:09:02.481Z,6.09
2017-04-06T07:10:12.393Z,6.14
2017-04-06T07:11:22.316Z,6.2
2017-04-06T07:12:32.147Z,6.21
2017-04-06T07:13:41.753Z,6.27
2017-04-06T07:14:51.692Z,6.3
2017-04-06T07:16:01.740Z,6.44
2017-04-06T07:17:11.653Z,6.54
2017-04-06T07:18:21.275Z,6.59
2017-04-06T07:19:31.170Z,6.72
2017-04-06T07:20:41.058Z,6.85
2017-04-06T07:21:51.044Z,6.85
2017-04-06T07:23:00.962Z,6.93
2017-04-06T07:24:10.577Z,6.95
2017-04-06T07:25:20.498Z,7
2017-04-06T07:26:30.363Z,7.14
2017-04-06T07:27:39.953Z,7.11
2017-04-06T07:28:49.986Z,7.03
2017-04-06T07:30:00.020Z,7.13
2017-04-06T07:31:09.921Z,7.18
2017-04-06T07:32:20.071Z,7.2
2017-04-06T07:33:29.980Z,7.21
2017-04-06T07:34:39.570Z,7.36
2017-04-06T07:35:49.177Z,7.37
2017-04-06T07:36:58.800Z,7.47
2017-04-06T07:38:08.814Z,7.59
2017-04-06T07:39:18.719Z,7.64
2017-04-06T07:40:28.663Z,7.74
2017-04-06T07:41:38.243Z,7.77
2017-04-06T07:42:47.837Z,7.87
2017-04-06T07:43:58.102Z,7.84
2017-04-06T07:45:08.048Z,7.91
2017-04-06T07:46:18.089Z,7.84
2017-04-06T07:47:27.748Z,7.94
2017-04-06T07:48:37.739Z,7.92
2017-04-06T07:49:48.408Z,8.02
2017-04-06T07:50:58.397Z,7.99
2017-04-06T07:52:07.662Z,8.03
2017-04-06T07:53:17.706Z,7.99
2017-04-06T07:54:27.329Z,7.99
2017-04-06T07:55:37.516Z,8.2
2017-04-06T07:56:46.815Z,8.17
2017-04-06T07:57:56.864Z,8.35
2017-04-06T07:59:07.359Z,8.45
2017-04-06T08:00:16.899Z,8.67
2017-04-06T08:01:27.395Z,9.45
2017-04-06T08:02:37.567Z,10.29
2017-04-06T08:03:48.166Z,11.12
2017-04-06T08:04:58.349Z,11.89
2017-04-06T08:06:08.873Z,12.57
2017-04-06T08:07:19.732Z,13.04
2017-04-06T08:08:30.274Z,13.64
2017-04-06T08:09:40.748Z,14.11
2017-04-06T08:10:51.281Z,14.51
2017-04-06T08:12:01.456Z,14.63
2017-04-06T08:13:11.558Z,14.91
2017-04-06T08:14:22.143Z,15.18
2017-04-06T08:15:32.721Z,15.39
2017-04-06T08:16:43.416Z,15.45
2017-04-06T08:17:53.276Z,15.7
2017-04-06T08:19:04.012Z,15.79
2017-04-06T08:20:14.610Z,15.68
2017-04-06T08:21:25.248Z,15.45
2017-04-06T08:22:35.125Z,15.55
2017-04-06T08:23:46.047Z,15.61
2017-04-06T08:24:56.904Z,15.73
2017-04-06T08:26:07.488Z,15.98
2017-04-06T08:27:17.712Z,16.43
2017-04-06T08:28:27.886Z,16.74
2017-04-06T08:29:39.556Z,17.05
2017-04-06T08:30:51.415Z,17.36
2017-04-06T08:32:01.316Z,17.73
2017-04-06T08:33:11.810Z,18.09
2017-04-06T08:34:21.984Z,18.2
2017-04-06T08:35:32.513Z,18.1
2017-04-06T08:36:42.679Z,18.09
2017-04-06T08:37:53.199Z,17.49
2017-04-06T08:39:04.677Z,17.58
2017-04-06T08:40:14.923Z,17.77
2017-04-06T08:41:25.408Z,17.76
2017-04-06T08:42:36.205Z,17.77
2017-04-06T08:43:46.732Z,18.05
2017-04-06T08:44:56.918Z,18.12
2017-04-06T08:46:07.568Z,18.41
2017-04-06T08:47:18.077Z,18.41
2017-04-06T08:48:28.841Z,18.55
2017-04-06T08:49:39.456Z,18.82
2017-04-06T08:50:49.989Z,19
2017-04-06T08:52:00.386Z,19.13
2017-04-06T08:53:11.050Z,19.28
2017-04-06T08:54:21.855Z,19.16
2017-04-06T08:55:33.054Z,19.21
2017-04-06T08:56:43.592Z,19.08
2017-04-06T08:57:55.054Z,19.13
2017-04-06T08:59:05.284Z,19.19
2017-04-06T09:00:15.465Z,19.23
2017-04-06T09:01:26.004Z,19.15
2017-04-06T09:02:36.130Z,19.15
2017-04-06T09:03:46.638Z,19.3
2017-04-06T09:04:57.275Z,19.55
2017-04-06T09:06:07.787Z,19.76
2017-04-06T09:07:18.342Z,19.9
2017-04-06T09:08:28.530Z,19.13
2017-04-06T09:09:39.106Z,18.97
2017-04-06T09:10:50.579Z,18.59
2017-04-06T09:12:01.414Z,18.73
2017-04-06T09:13:11.919Z,19
2017-04-06T09:14:22.486Z,18.31
2017-04-06T09:15:32.510Z,17.85
2017-04-06T09:16:43.025Z,17.92
2017-04-06T09:17:53.942Z,18.04
2017-04-06T09:19:04.154Z,18.02
2017-04-06T09:20:14.688Z,17.75
2017-04-06T09:21:24.872Z,17.91
2017-04-06T09:22:35.365Z,18.19
2017-04-06T09:23:47.249Z,18.3
2017-04-06T09:24:57.822Z,18.69
2017-04-06T09:26:08.348Z,18.26
2017-04-06T09:27:18.578Z,17.7
2017-04-06T09:28:29.126Z,17.06
2017-04-06T09:29:39.783Z,16.59
2017-04-06T09:30:50.340Z,16.98
2017-04-06T09:32:00.855Z,17.32
2017-04-06T09:33:11.427Z,17.82
2017-04-06T09:34:21.941Z,18.4
2017-04-06T09:35:32.379Z,18.71
2017-04-06T09:36:42.894Z,19.08
2017-04-06T09:37:53.063Z,19.15
2017-04-06T09:39:03.402Z,19.1
2017-04-06T09:40:13.612Z,19.31
2017-04-06T09:41:24.402Z,19.71
2017-04-06T09:42:35.025Z,19.79
2017-04-06T09:43:45.594Z,19.83
2017-04-06T09:44:55.774Z,19.61
2017-04-06T09:46:06.283Z,18.98
2017-04-06T09:47:17.128Z,18.97
2017-04-06T09:48:27.644Z,18.69
2017-04-06T09:49:38.278Z,17.95
2017-04-06T09:50:48.804Z,17.58
2017-04-06T09:51:59.180Z,17.92
2017-04-06T09:53:09.549Z,17.73
2017-04-06T09:54:20.138Z,18.01
2017-04-06T09:55:30.637Z,18.31
2017-04-06T09:57:13.041Z,18.88
2017-04-06T09:58:23.789Z,19
2017-04-06T09:59:34.289Z,19.49
2017-04-06T10:00:44.499Z,19.13
2017-04-06T10:01:54.774Z,18.95
2017-04-06T10:03:05.280Z,18.12
2017-04-06T10:04:16.075Z,17.52
2017-04-06T10:05:25.977Z,17.82
2017-04-06T10:06:36.152Z,18.12
2017-04-06T10:07:46.035Z,18.22
2017-04-06T10:08:56.534Z,18.25
2017-04-06T10:10:08.011Z,18
2017-04-06T10:11:18.644Z,17.73
2017-04-06T10:12:29.147Z,17.31
2017-04-06T10:13:39.698Z,17.19
2017-04-06T10:14:50.263Z,17.38
2017-04-06T10:16:01.065Z,17.45
2017-04-06T10:17:11.628Z,17.46
2017-04-06T10:18:22.146Z,17.21
2017-04-06T10:19:32.901Z,17.38
2017-04-06T10:20:43.132Z,17.24
2017-04-06T10:21:53.577Z,17.06
2017-04-06T10:23:04.105Z,16.98
2017-04-06T10:24:14.664Z,16.79
2017-04-06T10:25:25.232Z,16.66
2017-04-06T10:26:35.474Z,16.87
2017-04-06T10:27:46.273Z,16.84
2017-04-06T10:28:56.643Z,17.04
2017-04-06T10:30:07.806Z,17.31
2017-04-06T10:31:19.348Z,17.58
2017-04-06T10:32:30.507Z,17.75
2017-04-06T10:33:40.626Z,17.94
2017-04-06T10:34:51.914Z,18.13
2017-04-06T10:36:02.437Z,18.41
2017-04-06T10:37:12.952Z,18.5
2017-04-06T10:38:23.490Z,18.25
2017-04-06T10:39:34.295Z,17.87
2017-04-06T10:40:44.805Z,17.65
2017-04-06T10:41:54.676Z,17.28
2017-04-06T10:43:04.551Z,17.31
2017-04-06T10:44:15.240Z,17.21
2017-04-06T10:45:26.159Z,17.43
2017-04-06T10:46:36.381Z,17.45
2017-04-06T10:47:46.567Z,17.21
2017-04-06T10:48:56.802Z,17.27
2017-04-06T10:50:07.332Z,17.42
2017-04-06T10:51:18.034Z,17.23
2017-04-06T10:52:27.905Z,16.99
2017-04-06T10:53:38.085Z,16.66
2017-04-06T10:54:49.023Z,16.49
2017-04-06T10:56:00.171Z,16.24
2017-04-06T10:57:10.588Z,16.46
2017-04-06T10:58:21.134Z,16.44
2017-04-06T10:59:32.700Z,16.53
2017-04-06T11:00:43.234Z,16.75
2017-04-06T11:01:53.156Z,17.11
2017-04-06T11:03:04.964Z,17.49
2017-04-06T11:04:15.331Z,17.23
2017-04-06T11:05:25.886Z,17.52
2017-04-06T11:06:35.719Z,17.79
2017-04-06T11:07:46.276Z,18.07
2017-04-06T11:08:57.190Z,18.38
2017-04-06T11:10:07.716Z,18.5
2017-04-06T11:11:18.022Z,18.26
2017-04-06T11:12:28.650Z,17.8
2017-04-06T11:13:39.157Z,17.62
2017-04-06T11:14:49.777Z,17.49
2017-04-06T11:16:00.030Z,17.45
2017-04-06T11:17:10.574Z,17.43
2017-04-06T11:18:21.810Z,17.55
2017-04-06T11:19:32.689Z,17.67
2017-04-06T11:20:43.397Z,17.89
2017-04-06T11:21:53.941Z,17.89
2017-04-06T11:23:04.657Z,17.73
2017-04-06T11:24:16.131Z,17.4
2017-04-06T11:25:27.029Z,17.16
2017-04-06T11:26:37.842Z,17.08
2017-04-06T11:27:48.053Z,17.14
2017-04-06T11:28:58.634Z,17.24
2017-04-06T11:30:40.709Z,17.49
2017-04-06T11:31:51.164Z,17.55
2017-04-06T11:33:01.822Z,17.89
2017-04-06T11:34:13.420Z,17.94
2017-04-06T11:35:23.793Z,17.75
2017-04-06T11:36:34.362Z,17.3
2017-04-06T11:37:45.203Z,17.04
2017-04-06T11:38:55.701Z,16.99
2017-04-06T11:40:06.261Z,17.06
2017-04-06T11:41:16.769Z,17.11
2017-04-06T11:42:27.289Z,17.32
2017-04-06T11:43:38.097Z,17.64
2017-04-06T11:44:48.592Z,17.76
2017-04-06T11:45:59.430Z,17.98
2017-04-06T11:47:10.961Z,17.98
2017-04-06T11:48:21.539Z,18.05
2017-04-06T11:49:32.380Z,18.13
2017-04-06T11:50:43.867Z,18.26
2017-04-06T11:51:54.574Z,18.3
2017-04-06T11:53:04.808Z,18.3
2017-04-06T11:54:15.481Z,18.4
2017-04-06T11:55:26.304Z,18.4
2017-04-06T11:56:36.511Z,18.2
2017-04-06T11:57:47.183Z,18.37
2017-04-06T11:58:57.492Z,18.32
2017-04-06T12:00:08.164Z,18.47
2017-04-06T12:01:18.215Z,18.57
2017-04-06T12:02:29.714Z,18.87
2017-04-06T12:03:39.923Z,19.08
2017-04-06T12:04:50.180Z,19.3
2017-04-06T12:06:01.421Z,19.18
2017-04-06T12:07:12.719Z,19.15
2017-04-06T12:08:22.312Z,19.35
2017-04-06T12:09:33.875Z,19.43
2017-04-06T12:10:44.464Z,19.61
2017-04-06T12:11:54.739Z,19.48
2017-04-06T12:13:05.558Z,19.46
2017-04-06T12:14:16.000Z,19.42
2017-04-06T12:15:26.553Z,19.3
2017-04-06T12:16:37.072Z,19.12
2017-04-06T12:17:47.282Z,18.59
2017-04-06T12:18:58.107Z,18.12
2017-04-06T12:20:08.453Z,17.62
2017-04-06T12:21:18.965Z,17.14
2017-04-06T12:22:29.181Z,16.98
2017-04-06T12:23:39.470Z,16.99
2017-04-06T12:24:49.951Z,16.8
2017-04-06T12:26:00.763Z,16.56
2017-04-06T12:27:11.315Z,16.47
2017-04-06T12:28:21.885Z,16.53
2017-04-06T12:29:32.423Z,16.46
2017-04-06T12:30:43.220Z,16.65
2017-04-06T12:31:53.825Z,16.86
2017-04-06T12:33:04.033Z,17.01
2017-04-06T12:34:14.645Z,17.2
2017-04-06T12:35:25.199Z,17.32
2017-04-06T12:36:36.103Z,17.68
2017-04-06T12:37:46.410Z,17.92
2017-04-06T12:38:56.281Z,17.82
2017-04-06T12:40:06.484Z,17.73
2017-04-06T12:41:16.790Z,17.75
2017-04-06T12:42:27.015Z,17.64
2017-04-06T12:43:37.597Z,17.54
2017-04-06T12:44:49.120Z,17.43
2017-04-06T12:45:59.743Z,17.39
2017-04-06T12:47:09.988Z,17.43
2017-04-06T12:48:20.222Z,17.46
2017-04-06T12:49:31.799Z,17.43
2017-04-06T12:50:42.053Z,17.19
2017-04-06T12:51:52.572Z,17.05
2017-04-06T12:53:02.882Z,16.96
2017-04-06T12:54:13.713Z,16.72
2017-04-06T12:55:23.963Z,16.68
2017-04-06T12:56:34.500Z,16.47
2017-04-06T12:57:44.814Z,16.04
2017-04-06T12:58:55.372Z,15.79
2017-04-06T13:00:06.190Z,15.5
2017-04-06T13:01:16.704Z,15.42
2017-04-06T13:02:27.368Z,15.29
2017-04-06T13:03:37.600Z,15.32
2017-04-06T13:04:48.110Z,15.23
2017-04-06T13:05:58.961Z,15.39
2017-04-06T13:07:09.274Z,15.5
2017-04-06T13:08:19.252Z,15.53
2017-04-06T13:09:29.490Z,15.6
2017-04-06T13:10:40.077Z,15.69
2017-04-06T13:11:50.557Z,15.75
2017-04-06T13:13:01.127Z,15.76
2017-04-06T13:14:11.657Z,15.68
2017-04-06T13:15:22.181Z,15.57
2017-04-06T13:16:32.404Z,15.36
2017-04-06T13:17:43.201Z,15.2
2017-04-06T13:18:53.804Z,15.23
2017-04-06T13:20:05.003Z,15.08
2017-04-06T13:21:15.555Z,15.03
2017-04-06T13:22:25.822Z,14.91
2017-04-06T13:23:37.551Z,14.78
2017-04-06T13:24:48.085Z,14.69
2017-04-06T13:25:58.280Z,14.69
2017-04-06T13:27:08.954Z,14.52
2017-04-06T13:28:19.327Z,14.48
2017-04-06T13:29:30.077Z,14.45
2017-04-06T13:30:40.315Z,14.37
2017-04-06T13:31:50.917Z,14.21
2017-04-06T13:33:01.136Z,14.24
2017-04-06T13:34:11.711Z,14.25
2017-04-06T13:35:22.530Z,14.26
2017-04-06T13:36:33.050Z,14.34
2017-04-06T13:37:43.575Z,14.37
2017-04-06T13:38:54.175Z,14.47
2017-04-06T13:40:04.802Z,14.22
2017-04-06T13:41:15.610Z,14.14
2017-04-06T13:42:25.939Z,14.11
2017-04-06T13:43:36.507Z,13.99
2017-04-06T13:44:47.996Z,13.84
2017-04-06T13:45:58.554Z,13.73
2017-04-06T13:47:09.410Z,13.71
2017-04-06T13:48:20.907Z,13.64
2017-04-06T13:49:31.424Z,13.59
2017-04-06T13:50:41.687Z,13.61
2017-04-06T13:51:51.994Z,13.56
2017-04-06T13:53:02.784Z,13.7
2017-04-06T13:54:12.977Z,13.76
2017-04-06T13:55:23.484Z,13.84
2017-04-06T13:56:34.068Z,13.85
2017-04-06T13:57:44.877Z,13.82
2017-04-06T13:58:55.709Z,13.73
2017-04-06T14:00:06.994Z,13.54
2017-04-06T14:01:17.513Z,13.45
2017-04-06T14:02:28.040Z,13.48
2017-04-06T14:03:38.591Z,13.48
2017-04-06T14:04:49.357Z,13.52
2017-04-06T14:05:59.603Z,13.56
2017-04-06T14:07:10.367Z,13.55
2017-04-06T14:08:21.143Z,13.56
2017-04-06T14:09:31.721Z,13.56
2017-04-06T14:10:42.503Z,13.56
2017-04-06T14:11:52.818Z,13.61
2017-04-06T14:13:03.349Z,13.61
2017-04-06T14:14:13.922Z,13.52
2017-04-06T14:15:24.551Z,13.51
2017-04-06T14:16:34.682Z,13.67
2017-04-06T14:17:45.209Z,13.58
2017-04-06T14:18:55.793Z,13.51
2017-04-06T14:20:06.001Z,13.34
2017-04-06T14:21:16.198Z,13.27
2017-04-06T14:22:26.974Z,13.26
2017-04-06T14:23:37.536Z,13.29
2017-04-06T14:24:48.147Z,13.36
2017-04-06T14:25:58.834Z,13.4
2017-04-06T14:27:08.653Z,13.45
2017-04-06T14:28:19.548Z,13.54
2017-04-06T14:29:30.134Z,13.52
2017-04-06T14:30:40.743Z,13.63
2017-04-06T14:31:50.631Z,13.59
2017-04-06T14:33:01.205Z,13.54
2017-04-06T14:34:11.636Z,13.46
2017-04-06T14:35:21.826Z,13.51
2017-04-06T14:36:32.362Z,13.52
2017-04-06T14:37:42.648Z,13.48
2017-04-06T14:38:52.883Z,13.38
2017-04-06T14:40:03.745Z,13.4
2017-04-06T14:41:13.932Z,13.41
2017-04-06T14:42:24.552Z,13.4
2017-04-06T14:43:34.789Z,13.33
2017-04-06T14:44:44.685Z,13.36
2017-04-06T14:45:55.601Z,13.33
2017-04-06T14:47:05.875Z,13.21
2017-04-06T14:48:16.437Z,13.23
2017-04-06T14:49:26.946Z,13.29
2017-04-06T14:50:37.140Z,13.34
2017-04-06T14:51:47.887Z,13.33
2017-04-06T14:52:58.418Z,13.34
2017-04-06T14:54:08.973Z,13.33
2017-04-06T14:55:19.498Z,13.21
2017-04-06T14:56:29.794Z,13.16
2017-04-06T14:57:40.306Z,13.21
2017-04-06T14:58:50.495Z,13.15
2017-04-06T15:00:00.727Z,13.11
2017-04-06T15:01:11.068Z,13.03
2017-04-06T15:02:21.318Z,12.92
2017-04-06T15:03:31.517Z,12.92
2017-04-06T15:04:41.736Z,12.89
2017-04-06T15:05:53.223Z,12.88
2017-04-06T15:07:03.734Z,12.8
2017-04-06T15:08:14.228Z,12.72
2017-04-06T15:09:25.029Z,12.68
2017-04-06T15:10:35.558Z,12.71
2017-04-06T15:11:45.744Z,12.62
2017-04-06T15:12:56.470Z,12.57
2017-04-06T15:14:08.020Z,12.55
2017-04-06T15:15:18.789Z,12.57
2017-04-06T15:16:28.661Z,12.52
2017-04-06T15:17:39.207Z,12.47
2017-04-06T15:18:49.801Z,12.52
2017-04-06T15:20:00.305Z,12.38
2017-04-06T15:21:11.082Z,12.42
2017-04-06T15:22:21.609Z,12.45
2017-04-06T15:23:33.091Z,12.47
2017-04-06T15:24:44.564Z,12.41